createdAt,value
2022-12-31T00:02:13.663Z,0.80
2022-12-31T00:04:40.440Z,0.57
2022-12-31T00:07:06.788Z,0.50
2022-12-31T00:09:33.247Z,0.47
2022-12-31T00:11:59.621Z,0.80
2022-12-31T00:14:26.012Z,0.50
2022-12-31T00:16:52.519Z,0.40
2022-12-31T00:19:18.900Z,0.57
2022-12-31T00:21:45.310Z,0.47
2022-12-31T00:24:12.515Z,0.32
2022-12-31T00:26:39.176Z,0.40
2022-12-31T00:29:05.851Z,0.30
2022-12-31T00:31:37.376Z,0.40
2022-12-31T00:34:04.879Z,0.57
2022-12-31T00:36:34.599Z,0.60
2022-12-31T00:39:03.037Z,0.47
2022-12-31T00:41:29.919Z,0.70
2022-12-31T00:43:56.322Z,0.70
2022-12-31T00:46:23.406Z,0.70
2022-12-31T00:48:49.946Z,1.10
2022-12-31T00:51:18.678Z,1.45
2022-12-31T00:53:45.337Z,1.10
2022-12-31T00:56:14.623Z,1.00
2022-12-31T00:58:41.311Z,1.30
2022-12-31T01:01:32.775Z,1.15
2022-12-31T01:04:06.974Z,1.02
2022-12-31T01:06:33.469Z,1.10
2022-12-31T01:08:59.890Z,1.10
2022-12-31T01:11:29.434Z,1.00
2022-12-31T01:14:06.329Z,1.10
2022-12-31T01:16:39.250Z,0.95
2022-12-31T01:19:08.295Z,1.00
2022-12-31T01:21:37.203Z,1.00
2022-12-31T01:24:04.426Z,0.93
2022-12-31T01:26:30.982Z,0.90
2022-12-31T01:28:57.550Z,0.70
2022-12-31T01:31:24.951Z,0.80
2022-12-31T01:33:52.274Z,1.08
2022-12-31T01:36:26.098Z,0.80
2022-12-31T01:38:54.591Z,0.60
2022-12-31T01:41:33.722Z,1.20
2022-12-31T01:44:02.390Z,0.68
2022-12-31T01:46:39.697Z,0.68
2022-12-31T01:49:31.358Z,0.77
2022-12-31T01:52:21.552Z,0.57
2022-12-31T01:54:53.934Z,0.60
2022-12-31T01:57:22.385Z,0.60
2022-12-31T01:59:49.538Z,0.60
2022-12-31T02:02:16.468Z,0.57
2022-12-31T02:04:42.999Z,0.57
2022-12-31T02:07:11.247Z,0.60
2022-12-31T02:09:40.082Z,0.40
2022-12-31T02:12:07.818Z,0.40
2022-12-31T02:14:48.008Z,0.40
2022-12-31T02:17:32.248Z,0.30
2022-12-31T02:20:29.613Z,0.10
2022-12-31T02:23:01.931Z,0.15
2022-12-31T02:25:56.348Z,0.10
2022-12-31T02:28:38.064Z,0.20
2022-12-31T02:31:11.857Z,0.13
2022-12-31T02:33:49.852Z,0.30
2022-12-31T02:36:23.394Z,0.22
2022-12-31T02:38:50.420Z,0.10
2022-12-31T02:41:38.060Z,0.00
2022-12-31T02:44:24.211Z,0.10
2022-12-31T02:47:09.039Z,0.10
2022-12-31T02:49:38.340Z,0.13
2022-12-31T02:52:14.735Z,0.32
2022-12-31T02:54:58.853Z,0.10
2022-12-31T02:57:39.781Z,0.20
2022-12-31T03:00:32.019Z,0.10
2022-12-31T03:03:00.277Z,0.15
2022-12-31T03:05:30.343Z,0.25
2022-12-31T03:07:56.738Z,0.10
2022-12-31T03:10:23.626Z,0.10
2022-12-31T03:12:51.459Z,0.10
2022-12-31T03:15:27.174Z,0.32
2022-12-31T03:18:54.926Z,0.20
2022-12-31T03:21:53.678Z,0.00
2022-12-31T03:24:42.136Z,0.00
2022-12-31T03:27:08.515Z,0.20
2022-12-31T03:29:34.938Z,0.30
2022-12-31T03:32:01.314Z,0.00
2022-12-31T03:34:27.683Z,0.20
2022-12-31T03:36:54.049Z,0.10
2022-12-31T03:39:20.450Z,0.10
2022-12-31T03:41:46.886Z,0.13
2022-12-31T03:44:13.240Z,0.10
2022-12-31T03:46:39.595Z,0.13
2022-12-31T03:49:05.931Z,0.10
2022-12-31T03:51:32.312Z,0.30
2022-12-31T03:53:58.678Z,0.30
2022-12-31T03:56:25.044Z,0.20
2022-12-31T03:58:51.429Z,0.25
2022-12-31T04:01:17.955Z,0.15
2022-12-31T04:03:44.419Z,0.20
2022-12-31T04:06:10.790Z,0.17
2022-12-31T04:08:37.165Z,0.10
2022-12-31T04:11:04.459Z,0.30
2022-12-31T04:13:30.853Z,0.20
2022-12-31T04:15:57.327Z,0.10
2022-12-31T04:18:23.721Z,0.20
2022-12-31T04:20:50.150Z,0.10
2022-12-31T04:23:16.930Z,0.10
2022-12-31T04:25:43.313Z,0.10
2022-12-31T04:28:09.707Z,0.03
2022-12-31T04:30:36.056Z,0.10
2022-12-31T04:33:02.576Z,0.20
2022-12-31T04:35:28.965Z,0.17
2022-12-31T04:37:55.369Z,0.25
2022-12-31T04:40:21.861Z,0.32
2022-12-31T04:42:48.222Z,0.20
2022-12-31T04:45:14.693Z,0.40
2022-12-31T04:47:41.107Z,0.20
2022-12-31T04:50:07.717Z,0.10
2022-12-31T04:52:40.291Z,0.63
2022-12-31T04:57:35.373Z,0.10
2022-12-31T05:00:01.771Z,0.30
2022-12-31T05:02:29.881Z,0.30
2022-12-31T05:04:56.410Z,0.50
2022-12-31T05:07:22.812Z,0.28
2022-12-31T05:09:49.152Z,0.30
2022-12-31T05:12:15.518Z,0.40
2022-12-31T05:14:41.944Z,0.30
2022-12-31T05:17:08.369Z,0.30
2022-12-31T05:19:34.728Z,0.30
2022-12-31T05:22:19.770Z,0.50
2022-12-31T05:24:46.122Z,0.40
2022-12-31T05:27:12.668Z,0.22
2022-12-31T05:29:39.021Z,0.38
2022-12-31T05:32:05.409Z,0.38
2022-12-31T05:34:31.810Z,0.55
2022-12-31T05:36:58.251Z,0.50
2022-12-31T05:39:24.684Z,0.47
2022-12-31T05:41:51.123Z,0.38
2022-12-31T05:44:17.496Z,0.35
2022-12-31T05:46:43.866Z,0.45
2022-12-31T05:49:10.352Z,0.40
2022-12-31T05:51:36.751Z,0.40
2022-12-31T05:54:03.330Z,0.40
2022-12-31T05:56:29.824Z,0.25
2022-12-31T05:58:56.200Z,0.57
2022-12-31T06:01:22.731Z,0.25
2022-12-31T06:03:49.294Z,0.50
2022-12-31T06:06:15.779Z,0.50
2022-12-31T06:08:42.194Z,0.40
2022-12-31T06:11:08.655Z,0.40
2022-12-31T06:13:35.075Z,0.50
2022-12-31T06:16:09.045Z,0.55
2022-12-31T06:18:35.651Z,0.60
2022-12-31T06:21:05.799Z,0.70
2022-12-31T06:23:32.406Z,1.75
2022-12-31T06:26:03.341Z,0.50
2022-12-31T06:28:29.748Z,0.40
2022-12-31T06:31:00.636Z,0.68
2022-12-31T06:33:27.430Z,0.30
2022-12-31T06:35:58.157Z,0.60
2022-12-31T06:38:26.235Z,0.35
2022-12-31T06:40:53.017Z,0.38
2022-12-31T06:43:20.293Z,0.60
2022-12-31T06:45:46.880Z,0.52
2022-12-31T06:48:13.590Z,0.50
2022-12-31T06:50:40.303Z,0.40
2022-12-31T06:53:07.889Z,0.70
2022-12-31T06:55:34.764Z,0.80
2022-12-31T06:58:01.456Z,0.80
2022-12-31T07:00:28.359Z,0.52
2022-12-31T07:03:10.007Z,0.60
2022-12-31T07:05:44.945Z,0.57
2022-12-31T07:11:07.109Z,0.70
2022-12-31T07:13:44.162Z,0.60
2022-12-31T07:16:13.553Z,0.60
2022-12-31T07:18:52.334Z,0.60
2022-12-31T07:21:30.637Z,0.50
2022-12-31T07:23:57.396Z,0.65
2022-12-31T07:26:35.950Z,0.63
2022-12-31T07:29:11.887Z,0.47
2022-12-31T07:31:46.749Z,0.60
2022-12-31T07:39:39.046Z,0.52
2022-12-31T07:42:23.505Z,0.63
2022-12-31T07:45:01.089Z,0.70
2022-12-31T07:47:29.027Z,0.60
2022-12-31T07:49:56.242Z,0.65
2022-12-31T07:52:23.522Z,0.75
2022-12-31T07:54:49.865Z,0.60
2022-12-31T07:57:18.840Z,0.60
2022-12-31T07:59:57.315Z,0.60
2022-12-31T08:02:36.503Z,0.43
2022-12-31T08:05:08.623Z,0.85
2022-12-31T08:07:56.343Z,0.68
2022-12-31T08:10:34.735Z,0.40
2022-12-31T08:13:03.658Z,0.50
2022-12-31T08:15:30.889Z,0.50
2022-12-31T08:17:57.796Z,0.55
2022-12-31T08:20:25.560Z,0.70
2022-12-31T08:23:10.275Z,0.40
2022-12-31T08:25:59.048Z,0.60
2022-12-31T08:28:59.019Z,0.40
2022-12-31T08:31:54.644Z,0.60
2022-12-31T08:37:08.488Z,0.40
2022-12-31T08:40:01.228Z,0.90
2022-12-31T08:42:55.992Z,0.50
2022-12-31T08:45:37.751Z,0.68
2022-12-31T08:48:26.530Z,0.57
2022-12-31T08:50:54.154Z,0.60
2022-12-31T08:53:21.115Z,0.50
2022-12-31T08:55:52.702Z,0.60
2022-12-31T08:58:34.327Z,0.77
2022-12-31T09:01:01.501Z,0.85
2022-12-31T09:03:55.091Z,0.52
2022-12-31T09:06:29.238Z,0.60
2022-12-31T09:09:05.615Z,0.47
2022-12-31T09:12:10.490Z,0.88
2022-12-31T09:15:06.433Z,0.70
2022-12-31T09:17:38.994Z,0.63
2022-12-31T09:20:06.777Z,0.70
2022-12-31T09:22:33.343Z,1.17
2022-12-31T09:25:00.003Z,0.90
2022-12-31T09:27:42.821Z,0.90
2022-12-31T09:30:13.963Z,0.90
2022-12-31T09:33:01.784Z,0.80
2022-12-31T09:35:37.988Z,0.90
2022-12-31T09:38:37.238Z,0.80
2022-12-31T09:41:29.934Z,0.80
2022-12-31T09:44:15.089Z,1.20
2022-12-31T09:47:12.438Z,0.60
2022-12-31T09:49:59.441Z,1.13
2022-12-31T09:52:41.844Z,0.80
2022-12-31T09:55:49.242Z,0.80
2022-12-31T09:58:18.668Z,1.10
2022-12-31T10:01:17.648Z,0.90
2022-12-31T10:03:58.239Z,0.80
2022-12-31T10:06:39.905Z,1.00
2022-12-31T10:09:39.255Z,0.88
2022-12-31T10:12:25.031Z,0.70
2022-12-31T10:15:28.882Z,0.90
2022-12-31T10:18:09.444Z,0.85
2022-12-31T10:21:09.693Z,0.80
2022-12-31T10:23:48.296Z,1.20
2022-12-31T10:26:29.069Z,1.02
2022-12-31T10:29:06.056Z,0.77
2022-12-31T10:31:40.579Z,0.90
2022-12-31T10:34:44.574Z,0.95
2022-12-31T10:37:17.231Z,1.00
2022-12-31T10:39:43.658Z,0.90
2022-12-31T10:42:19.283Z,1.10
2022-12-31T10:45:12.494Z,0.90
2022-12-31T10:48:00.758Z,1.05
2022-12-31T10:50:46.814Z,0.90
2022-12-31T10:53:25.095Z,1.02
2022-12-31T10:56:26.205Z,1.00
2022-12-31T10:59:27.907Z,0.70
2022-12-31T11:02:16.440Z,0.80
2022-12-31T11:05:24.288Z,1.05
2022-12-31T11:07:58.692Z,0.90
2022-12-31T11:10:51.787Z,1.73
2022-12-31T11:13:30.267Z,1.00
2022-12-31T11:16:18.102Z,1.13
2022-12-31T11:19:17.576Z,0.95
2022-12-31T11:22:24.481Z,1.02
2022-12-31T11:25:09.842Z,1.13
2022-12-31T11:28:08.042Z,0.98
2022-12-31T11:31:05.277Z,0.80
2022-12-31T11:37:04.947Z,1.15
2022-12-31T11:39:44.768Z,0.98
2022-12-31T11:42:35.871Z,1.13
2022-12-31T11:45:14.544Z,0.65
2022-12-31T11:48:29.692Z,1.10
2022-12-31T11:50:51.070Z,0.90
2022-12-31T11:53:26.320Z,0.90
2022-12-31T11:56:24.943Z,1.15
2022-12-31T11:58:53.474Z,0.90
2022-12-31T12:01:32.624Z,0.88
2022-12-31T12:03:59.872Z,0.93
2022-12-31T12:06:31.571Z,1.10
2022-12-31T12:09:13.268Z,1.00
2022-12-31T12:11:40.515Z,1.15
2022-12-31T12:14:33.534Z,0.80
2022-12-31T12:17:04.796Z,1.35
2022-12-31T12:19:34.139Z,1.13
2022-12-31T12:22:10.976Z,0.90
2022-12-31T12:24:37.746Z,1.30
2022-12-31T12:27:04.453Z,1.10
2022-12-31T12:29:34.768Z,1.10
2022-12-31T12:32:04.409Z,1.00
2022-12-31T12:34:36.761Z,0.90
2022-12-31T12:37:03.953Z,0.90
2022-12-31T12:39:34.505Z,0.90
2022-12-31T12:42:10.633Z,1.30
2022-12-31T12:44:37.425Z,1.42
2022-12-31T12:47:08.205Z,0.70
2022-12-31T12:49:40.688Z,1.00
2022-12-31T12:52:36.009Z,1.00
2022-12-31T12:55:12.202Z,1.17
2022-12-31T12:57:45.963Z,0.90
2022-12-31T13:00:25.270Z,1.23
2022-12-31T13:02:55.041Z,0.90
2022-12-31T13:05:41.990Z,1.05
2022-12-31T13:08:14.381Z,0.90
2022-12-31T13:11:11.480Z,0.90
2022-12-31T13:13:47.131Z,0.75
2022-12-31T13:16:22.844Z,1.10
2022-12-31T13:19:00.378Z,1.20
2022-12-31T13:21:39.088Z,1.00
2022-12-31T13:24:18.611Z,1.00
2022-12-31T13:26:57.754Z,1.20
2022-12-31T13:29:32.538Z,1.00
2022-12-31T13:34:35.169Z,1.15
2022-12-31T13:37:40.161Z,0.90
2022-12-31T13:40:34.248Z,1.25
2022-12-31T13:43:12.202Z,1.27
2022-12-31T13:45:44.614Z,1.08
2022-12-31T13:48:22.079Z,1.40
2022-12-31T13:50:59.182Z,1.00
2022-12-31T13:53:34.074Z,1.02
2022-12-31T13:58:38.509Z,0.93
2022-12-31T14:01:35.685Z,1.20
2022-12-31T14:04:25.148Z,1.27
2022-12-31T14:07:04.522Z,1.20
2022-12-31T14:09:34.132Z,1.15
2022-12-31T14:12:34.509Z,1.00
2022-12-31T14:15:14.317Z,0.98
2022-12-31T14:17:52.680Z,1.05
2022-12-31T14:20:33.181Z,1.23
2022-12-31T14:23:24.048Z,1.25
2022-12-31T14:25:59.533Z,1.40
2022-12-31T14:28:33.163Z,1.50
2022-12-31T14:31:15.547Z,1.35
2022-12-31T14:33:41.987Z,1.25
2022-12-31T14:36:40.843Z,1.40
2022-12-31T14:39:17.159Z,1.58
2022-12-31T14:41:54.987Z,1.52
2022-12-31T14:44:32.214Z,1.23
2022-12-31T14:47:27.544Z,1.20
2022-12-31T14:50:13.984Z,1.65
2022-12-31T14:52:58.973Z,1.55
2022-12-31T14:55:28.702Z,1.30
2022-12-31T15:01:22.462Z,1.63
2022-12-31T15:03:50.576Z,1.43
2022-12-31T15:06:22.797Z,1.50
2022-12-31T15:09:17.887Z,1.52
2022-12-31T15:11:56.448Z,1.70
2022-12-31T15:14:50.837Z,1.50
2022-12-31T15:17:36.059Z,1.10
2022-12-31T15:22:46.140Z,1.17
2022-12-31T15:25:40.531Z,1.17
2022-12-31T15:28:32.254Z,1.58
2022-12-31T15:31:11.745Z,1.50
2022-12-31T15:33:53.563Z,1.50
2022-12-31T15:36:23.089Z,1.23
2022-12-31T15:38:50.571Z,1.33
2022-12-31T15:41:19.919Z,1.80
2022-12-31T15:43:54.411Z,1.70
2022-12-31T15:46:25.652Z,1.20
2022-12-31T15:49:03.747Z,1.40
2022-12-31T15:51:41.007Z,1.33
2022-12-31T15:54:16.961Z,1.42
2022-12-31T15:56:47.251Z,1.13
2022-12-31T15:59:16.758Z,1.23
2022-12-31T16:01:45.316Z,1.52
2022-12-31T16:04:33.470Z,1.30
2022-12-31T16:07:03.845Z,1.55
2022-12-31T16:09:34.540Z,1.00
2022-12-31T16:12:03.634Z,0.80
2022-12-31T16:14:55.404Z,1.30
2022-12-31T16:17:31.268Z,1.38
2022-12-31T16:19:58.566Z,1.10
2022-12-31T16:22:40.236Z,1.20
2022-12-31T16:25:30.831Z,1.23
2022-12-31T16:27:58.219Z,1.45
2022-12-31T16:30:30.237Z,1.40
2022-12-31T16:33:03.138Z,1.50
2022-12-31T16:35:32.028Z,1.40
2022-12-31T16:38:15.297Z,1.42
2022-12-31T16:40:44.082Z,1.88
2022-12-31T16:43:35.776Z,1.67
2022-12-31T16:46:17.348Z,1.92
2022-12-31T16:48:51.860Z,1.40
2022-12-31T16:51:25.558Z,1.70
2022-12-31T16:53:52.368Z,2.10
2022-12-31T16:56:37.155Z,2.15
2022-12-31T16:59:12.054Z,1.33
2022-12-31T17:01:38.978Z,1.63
2022-12-31T17:04:10.885Z,1.85
2022-12-31T17:06:37.403Z,1.50
2022-12-31T17:09:15.130Z,1.90
2022-12-31T17:11:50.696Z,2.10
2022-12-31T17:14:19.636Z,1.70
2022-12-31T17:17:04.029Z,1.55
2022-12-31T17:19:36.079Z,1.42
2022-12-31T17:22:04.579Z,1.70
2022-12-31T17:24:31.584Z,1.45
2022-12-31T17:27:05.387Z,1.80
2022-12-31T17:29:32.157Z,2.20
2022-12-31T17:32:05.290Z,1.90
2022-12-31T17:34:34.697Z,1.48
2022-12-31T17:37:06.983Z,1.95
2022-12-31T17:39:46.391Z,1.75
2022-12-31T17:42:15.623Z,1.80
2022-12-31T17:44:44.531Z,1.75
2022-12-31T17:47:14.010Z,1.80
2022-12-31T17:49:44.947Z,1.50
2022-12-31T17:52:15.635Z,1.35
2022-12-31T17:54:42.819Z,1.80
2022-12-31T17:57:26.752Z,1.33
2022-12-31T17:59:53.889Z,1.58
2022-12-31T18:02:20.491Z,1.90
2022-12-31T18:04:47.142Z,2.03
2022-12-31T18:07:13.580Z,2.30
2022-12-31T18:09:40.028Z,1.70
2022-12-31T18:12:06.971Z,1.63
2022-12-31T18:14:33.423Z,1.60
2022-12-31T18:17:00.728Z,1.88
2022-12-31T18:22:16.105Z,1.63
2022-12-31T18:24:43.361Z,2.30
2022-12-31T18:27:16.411Z,2.20
2022-12-31T18:29:43.411Z,1.83
2022-12-31T18:32:21.035Z,2.55
2022-12-31T18:34:47.790Z,1.85
2022-12-31T18:37:21.272Z,1.98
2022-12-31T18:39:48.338Z,2.20
2022-12-31T18:42:17.594Z,1.70
2022-12-31T18:44:45.183Z,1.95
2022-12-31T18:47:17.206Z,1.70
2022-12-31T18:49:44.942Z,2.15
2022-12-31T18:52:16.347Z,1.75
2022-12-31T18:54:42.798Z,2.40
2022-12-31T18:57:11.185Z,1.92
2022-12-31T18:59:37.599Z,1.88
2022-12-31T19:02:04.504Z,2.00
2022-12-31T19:04:31.294Z,2.20
2022-12-31T19:06:57.714Z,2.10
2022-12-31T19:09:44.621Z,2.22
2022-12-31T19:12:13.384Z,1.98
2022-12-31T19:14:39.947Z,1.83
2022-12-31T19:19:31.676Z,2.25
2022-12-31T19:21:58.008Z,2.25
2022-12-31T19:24:26.517Z,2.85
2022-12-31T19:26:54.104Z,2.25
2022-12-31T19:29:23.047Z,2.25
2022-12-31T19:31:49.786Z,2.20
2022-12-31T19:34:16.347Z,2.05
2022-12-31T19:36:44.312Z,2.13
2022-12-31T19:39:15.949Z,2.53
2022-12-31T19:41:43.659Z,2.70
2022-12-31T19:44:19.852Z,2.25
2022-12-31T19:46:47.040Z,1.98
2022-12-31T19:49:14.293Z,1.88
2022-12-31T19:51:41.240Z,1.95
2022-12-31T19:54:08.569Z,1.73
2022-12-31T19:56:35.159Z,1.83
2022-12-31T19:59:09.352Z,1.92
2022-12-31T20:01:36.057Z,1.60
2022-12-31T20:04:02.693Z,2.17
2022-12-31T20:06:29.148Z,2.17
2022-12-31T20:08:55.596Z,1.83
2022-12-31T20:11:24.022Z,2.28
2022-12-31T20:13:55.058Z,2.40
2022-12-31T20:16:26.705Z,2.30
2022-12-31T20:18:53.386Z,2.30
2022-12-31T20:21:22.365Z,2.10
2022-12-31T20:23:50.121Z,2.38
2022-12-31T20:26:17.864Z,2.30
2022-12-31T20:28:44.727Z,2.08
2022-12-31T20:31:14.500Z,2.40
2022-12-31T20:33:41.107Z,3.20
2022-12-31T20:36:10.395Z,3.55
2022-12-31T20:38:37.348Z,3.00
2022-12-31T20:41:12.840Z,2.78
2022-12-31T20:43:39.984Z,2.08
2022-12-31T20:46:21.026Z,2.88
2022-12-31T20:48:48.597Z,3.30
2022-12-31T20:51:16.638Z,2.63
2022-12-31T20:53:57.352Z,2.20
2022-12-31T20:56:25.833Z,2.42
2022-12-31T20:58:52.327Z,2.60
2022-12-31T21:01:19.584Z,2.63
2022-12-31T21:06:34.777Z,2.90
2022-12-31T21:09:02.756Z,2.13
2022-12-31T21:11:47.782Z,2.50
2022-12-31T21:14:14.573Z,2.95
2022-12-31T21:16:41.004Z,2.72
2022-12-31T21:19:07.501Z,2.17
2022-12-31T21:21:33.986Z,2.30
2022-12-31T21:24:00.406Z,2.70
2022-12-31T21:26:27.454Z,2.10
2022-12-31T21:28:53.899Z,2.50
2022-12-31T21:31:20.377Z,2.20
2022-12-31T21:33:47.399Z,2.03
2022-12-31T21:36:14.614Z,2.92
2022-12-31T21:38:41.570Z,2.17
2022-12-31T21:41:09.469Z,2.47
2022-12-31T21:43:35.961Z,2.35
2022-12-31T21:46:07.117Z,2.25
2022-12-31T21:48:33.999Z,2.40
2022-12-31T21:51:15.153Z,2.38
2022-12-31T21:53:41.625Z,2.85
2022-12-31T21:56:09.554Z,2.67
2022-12-31T21:58:41.219Z,2.55
2022-12-31T22:01:33.733Z,2.47
2022-12-31T22:04:00.299Z,2.33
2022-12-31T22:06:26.967Z,3.20
2022-12-31T22:08:55.516Z,2.50
2022-12-31T22:11:25.717Z,3.05
2022-12-31T22:13:53.348Z,3.15
2022-12-31T22:16:20.856Z,3.05
2022-12-31T22:18:48.070Z,3.20
2022-12-31T22:21:19.318Z,2.75
2022-12-31T22:23:52.097Z,2.97
2022-12-31T22:26:21.466Z,2.58
2022-12-31T22:28:48.082Z,3.10
2022-12-31T22:31:24.270Z,3.17
2022-12-31T22:33:51.000Z,3.38
2022-12-31T22:36:22.015Z,2.65
2022-12-31T22:38:50.767Z,2.28
2022-12-31T22:41:22.317Z,2.38
2022-12-31T22:43:51.384Z,2.15
2022-12-31T22:46:20.683Z,2.05
2022-12-31T22:48:47.573Z,2.30
2022-12-31T22:51:14.985Z,2.55
2022-12-31T22:53:43.271Z,2.65
2022-12-31T22:56:12.192Z,2.63
2022-12-31T22:58:38.850Z,3.28
2022-12-31T23:01:18.095Z,3.60
2022-12-31T23:03:45.695Z,9.10
2022-12-31T23:06:12.316Z,52.22
2022-12-31T23:08:38.783Z,34.50
2022-12-31T23:11:06.149Z,39.22
2022-12-31T23:13:59.523Z,68.57
2022-12-31T23:16:48.405Z,62.08
2022-12-31T23:19:33.915Z,59.63
2022-12-31T23:22:19.390Z,67.25
2022-12-31T23:24:45.817Z,56.17
2022-12-31T23:27:12.654Z,51.00
2022-12-31T23:29:46.123Z,51.42
2022-12-31T23:32:13.907Z,49.63
2022-12-31T23:34:40.334Z,50.00
2022-12-31T23:37:06.753Z,58.30
2022-12-31T23:39:33.173Z,71.60
2022-12-31T23:42:00.432Z,49.80
2022-12-31T23:44:28.369Z,50.78
2022-12-31T23:46:55.213Z,40.50
2022-12-31T23:49:22.036Z,39.25
2022-12-31T23:51:48.691Z,37.53
2022-12-31T23:54:15.834Z,35.65
2022-12-31T23:56:42.357Z,37.90
2022-12-31T23:59:09.929Z,39.95
